sensor_id;sensor_type;location;lat;lon;timestamp;P1;durP1;ratioP1;P2;durP2;ratioP2
77868;SDS011;67231;59.144;37.934;2023-12-22T00:00:55;5.60;;;2.63;;
77868;SDS011;67231;59.144;37.934;2023-12-22T00:03:22;4.63;;;2.65;;
77868;SDS011;67231;59.144;37.934;2023-12-22T00:05:48;5.35;;;2.78;;
77868;SDS011;67231;59.144;37.934;2023-12-22T00:08:15;6.40;;;3.05;;
77868;SDS011;67231;59.144;37.934;2023-12-22T00:10:41;6.95;;;2.50;;
77868;SDS011;67231;59.144;37.934;2023-12-22T00:13:07;6.85;;;3.33;;
77868;SDS011;67231;59.144;37.934;2023-12-22T00:15:34;6.38;;;2.95;;
77868;SDS011;67231;59.144;37.934;2023-12-22T00:18:00;6.53;;;2.92;;
77868;SDS011;67231;59.144;37.934;2023-12-22T00:20:26;6.15;;;2.80;;
77868;SDS011;67231;59.144;37.934;2023-12-22T00:22:53;6.53;;;2.80;;
77868;SDS011;67231;59.144;37.934;2023-12-22T00:25:19;4.90;;;2.50;;
77868;SDS011;67231;59.144;37.934;2023-12-22T00:27:45;5.40;;;2.70;;
77868;SDS011;67231;59.144;37.934;2023-12-22T00:30:12;5.63;;;2.72;;
77868;SDS011;67231;59.144;37.934;2023-12-22T00:32:38;6.20;;;2.72;;
77868;SDS011;67231;59.144;37.934;2023-12-22T00:35:04;5.63;;;2.40;;
77868;SDS011;67231;59.144;37.934;2023-12-22T00:37:31;5.05;;;2.60;;
77868;SDS011;67231;59.144;37.934;2023-12-22T00:39:57;6.03;;;2.58;;
77868;SDS011;67231;59.144;37.934;2023-12-22T00:42:24;5.18;;;2.40;;
77868;SDS011;67231;59.144;37.934;2023-12-22T00:44:51;5.60;;;2.20;;
77868;SDS011;67231;59.144;37.934;2023-12-22T00:47:17;4.03;;;2.20;;
77868;SDS011;67231;59.144;37.934;2023-12-22T00:49:44;8.15;;;2.60;;
77868;SDS011;67231;59.144;37.934;2023-12-22T00:52:10;5.38;;;2.55;;
77868;SDS011;67231;59.144;37.934;2023-12-22T00:54:37;6.53;;;2.50;;
77868;SDS011;67231;59.144;37.934;2023-12-22T00:57:03;6.07;;;2.65;;
77868;SDS011;67231;59.144;37.934;2023-12-22T00:59:29;6.47;;;2.88;;
77868;SDS011;67231;59.144;37.934;2023-12-22T01:01:56;5.38;;;2.30;;
77868;SDS011;67231;59.144;37.934;2023-12-22T01:04:22;4.82;;;2.65;;
77868;SDS011;67231;59.144;37.934;2023-12-22T01:06:52;6.43;;;2.58;;
77868;SDS011;67231;59.144;37.934;2023-12-22T01:09:18;6.30;;;2.78;;
77868;SDS011;67231;59.144;37.934;2023-12-22T01:11:46;6.57;;;2.60;;
77868;SDS011;67231;59.144;37.934;2023-12-22T01:14:12;4.85;;;2.20;;
77868;SDS011;67231;59.144;37.934;2023-12-22T01:16:40;4.75;;;2.05;;
77868;SDS011;67231;59.144;37.934;2023-12-22T01:19:06;8.77;;;2.58;;
77868;SDS011;67231;59.144;37.934;2023-12-22T01:21:32;6.25;;;2.40;;
77868;SDS011;67231;59.144;37.934;2023-12-22T01:23:59;5.20;;;2.33;;
77868;SDS011;67231;59.144;37.934;2023-12-22T01:26:25;6.72;;;2.95;;
77868;SDS011;67231;59.144;37.934;2023-12-22T01:28:51;5.40;;;2.53;;
77868;SDS011;67231;59.144;37.934;2023-12-22T01:31:18;5.57;;;2.58;;
77868;SDS011;67231;59.144;37.934;2023-12-22T01:33:45;6.20;;;2.40;;
77868;SDS011;67231;59.144;37.934;2023-12-22T01:36:11;7.22;;;2.85;;
77868;SDS011;67231;59.144;37.934;2023-12-22T01:38:38;6.25;;;2.78;;
77868;SDS011;67231;59.144;37.934;2023-12-22T01:41:04;7.05;;;2.83;;
77868;SDS011;67231;59.144;37.934;2023-12-22T01:43:30;6.43;;;2.55;;
77868;SDS011;67231;59.144;37.934;2023-12-22T01:45:57;6.78;;;2.53;;
77868;SDS011;67231;59.144;37.934;2023-12-22T01:48:25;6.65;;;2.95;;
77868;SDS011;67231;59.144;37.934;2023-12-22T01:50:53;6.65;;;2.83;;
77868;SDS011;67231;59.144;37.934;2023-12-22T01:53:21;8.90;;;2.45;;
77868;SDS011;67231;59.144;37.934;2023-12-22T01:55:50;4.65;;;2.17;;
77868;SDS011;67231;59.144;37.934;2023-12-22T01:58:19;6.45;;;2.60;;
77868;SDS011;67231;59.144;37.934;2023-12-22T02:00:46;4.53;;;2.20;;
77868;SDS011;67231;59.144;37.934;2023-12-22T02:03:13;5.63;;;2.45;;
77868;SDS011;67231;59.144;37.934;2023-12-22T02:05:43;4.85;;;2.33;;
77868;SDS011;67231;59.144;37.934;2023-12-22T02:08:10;4.72;;;2.10;;
77868;SDS011;67231;59.144;37.934;2023-12-22T02:10:37;5.47;;;2.35;;
77868;SDS011;67231;59.144;37.934;2023-12-22T02:13:05;5.10;;;2.53;;
77868;SDS011;67231;59.144;37.934;2023-12-22T02:15:32;4.40;;;2.40;;
77868;SDS011;67231;59.144;37.934;2023-12-22T02:20:58;6.93;;;2.10;;
77868;SDS011;67231;59.144;37.934;2023-12-22T02:23:24;4.93;;;1.83;;
77868;SDS011;67231;59.144;37.934;2023-12-22T02:25:53;1.98;;;0.93;;
77868;SDS011;67231;59.144;37.934;2023-12-22T02:28:29;5.68;;;2.13;;
77868;SDS011;67231;59.144;37.934;2023-12-22T02:31:11;4.63;;;2.28;;
77868;SDS011;67231;59.144;37.934;2023-12-22T02:33:44;7.50;;;3.17;;
77868;SDS011;67231;59.144;37.934;2023-12-22T02:36:13;6.68;;;2.15;;
77868;SDS011;67231;59.144;37.934;2023-12-22T02:38:43;6.32;;;2.78;;
77868;SDS011;67231;59.144;37.934;2023-12-22T02:41:11;6.07;;;2.75;;
77868;SDS011;67231;59.144;37.934;2023-12-22T02:43:38;5.50;;;2.30;;
77868;SDS011;67231;59.144;37.934;2023-12-22T02:46:12;4.15;;;1.88;;
77868;SDS011;67231;59.144;37.934;2023-12-22T02:48:39;6.45;;;2.90;;
77868;SDS011;67231;59.144;37.934;2023-12-22T02:51:06;6.38;;;2.70;;
77868;SDS011;67231;59.144;37.934;2023-12-22T02:53:32;1.95;;;1.25;;
77868;SDS011;67231;59.144;37.934;2023-12-22T02:55:59;6.65;;;2.70;;
77868;SDS011;67231;59.144;37.934;2023-12-22T02:58:25;6.18;;;2.20;;
77868;SDS011;67231;59.144;37.934;2023-12-22T03:00:51;8.20;;;2.80;;
77868;SDS011;67231;59.144;37.934;2023-12-22T03:03:18;5.05;;;2.28;;
77868;SDS011;67231;59.144;37.934;2023-12-22T03:05:44;4.53;;;1.88;;
77868;SDS011;67231;59.144;37.934;2023-12-22T03:08:11;4.80;;;2.28;;
77868;SDS011;67231;59.144;37.934;2023-12-22T03:10:37;5.97;;;2.53;;
77868;SDS011;67231;59.144;37.934;2023-12-22T03:13:04;6.35;;;2.30;;
77868;SDS011;67231;59.144;37.934;2023-12-22T03:15:31;6.50;;;2.40;;
77868;SDS011;67231;59.144;37.934;2023-12-22T03:17:57;5.05;;;2.00;;
77868;SDS011;67231;59.144;37.934;2023-12-22T03:20:24;5.90;;;2.33;;
77868;SDS011;67231;59.144;37.934;2023-12-22T03:22:50;5.93;;;2.50;;
77868;SDS011;67231;59.144;37.934;2023-12-22T03:25:17;7.43;;;2.88;;
77868;SDS011;67231;59.144;37.934;2023-12-22T03:27:44;5.57;;;2.67;;
77868;SDS011;67231;59.144;37.934;2023-12-22T03:30:10;6.57;;;2.63;;
77868;SDS011;67231;59.144;37.934;2023-12-22T03:32:37;7.22;;;2.42;;
77868;SDS011;67231;59.144;37.934;2023-12-22T03:35:04;6.88;;;2.90;;
77868;SDS011;67231;59.144;37.934;2023-12-22T03:37:32;5.40;;;2.78;;
77868;SDS011;67231;59.144;37.934;2023-12-22T03:39:59;6.30;;;2.90;;
77868;SDS011;67231;59.144;37.934;2023-12-22T03:42:25;7.00;;;3.05;;
77868;SDS011;67231;59.144;37.934;2023-12-22T03:44:52;8.40;;;3.25;;
77868;SDS011;67231;59.144;37.934;2023-12-22T03:47:19;6.90;;;3.00;;
77868;SDS011;67231;59.144;37.934;2023-12-22T03:49:45;6.75;;;2.72;;
77868;SDS011;67231;59.144;37.934;2023-12-22T03:52:12;5.80;;;2.78;;
77868;SDS011;67231;59.144;37.934;2023-12-22T03:54:39;6.68;;;3.10;;
77868;SDS011;67231;59.144;37.934;2023-12-22T03:57:05;5.57;;;2.80;;
77868;SDS011;67231;59.144;37.934;2023-12-22T03:59:32;5.78;;;2.55;;
77868;SDS011;67231;59.144;37.934;2023-12-22T04:01:58;5.95;;;2.60;;
77868;SDS011;67231;59.144;37.934;2023-12-22T04:04:27;5.55;;;2.65;;
77868;SDS011;67231;59.144;37.934;2023-12-22T04:06:54;5.68;;;2.63;;
77868;SDS011;67231;59.144;37.934;2023-12-22T04:09:20;10.35;;;2.80;;
77868;SDS011;67231;59.144;37.934;2023-12-22T04:11:47;4.63;;;2.28;;
77868;SDS011;67231;59.144;37.934;2023-12-22T04:14:14;6.45;;;2.97;;
77868;SDS011;67231;59.144;37.934;2023-12-22T04:16:41;6.28;;;3.08;;
77868;SDS011;67231;59.144;37.934;2023-12-22T04:19:07;5.82;;;2.75;;
77868;SDS011;67231;59.144;37.934;2023-12-22T04:21:34;6.03;;;2.80;;
77868;SDS011;67231;59.144;37.934;2023-12-22T04:24:00;6.40;;;2.80;;
77868;SDS011;67231;59.144;37.934;2023-12-22T04:26:27;8.65;;;3.60;;
77868;SDS011;67231;59.144;37.934;2023-12-22T04:28:53;6.13;;;2.55;;
77868;SDS011;67231;59.144;37.934;2023-12-22T04:31:19;6.47;;;2.55;;
77868;SDS011;67231;59.144;37.934;2023-12-22T04:33:46;6.53;;;2.90;;
77868;SDS011;67231;59.144;37.934;2023-12-22T04:36:12;6.32;;;2.75;;
77868;SDS011;67231;59.144;37.934;2023-12-22T04:38:39;6.18;;;2.75;;
77868;SDS011;67231;59.144;37.934;2023-12-22T04:41:06;7.28;;;3.33;;
77868;SDS011;67231;59.144;37.934;2023-12-22T04:43:33;7.03;;;2.83;;
77868;SDS011;67231;59.144;37.934;2023-12-22T04:46:04;7.35;;;3.05;;
77868;SDS011;67231;59.144;37.934;2023-12-22T04:48:31;6.40;;;2.78;;
77868;SDS011;67231;59.144;37.934;2023-12-22T04:50:59;8.50;;;3.28;;
77868;SDS011;67231;59.144;37.934;2023-12-22T04:53:25;7.50;;;3.38;;
77868;SDS011;67231;59.144;37.934;2023-12-22T04:55:51;7.25;;;3.28;;
77868;SDS011;67231;59.144;37.934;2023-12-22T04:58:18;4.97;;;2.92;;
77868;SDS011;67231;59.144;37.934;2023-12-22T05:00:44;5.93;;;3.05;;
77868;SDS011;67231;59.144;37.934;2023-12-22T05:03:10;7.00;;;3.40;;
77868;SDS011;67231;59.144;37.934;2023-12-22T05:05:37;5.25;;;2.88;;
77868;SDS011;67231;59.144;37.934;2023-12-22T05:08:03;7.07;;;3.03;;
77868;SDS011;67231;59.144;37.934;2023-12-22T05:10:30;9.18;;;3.30;;
77868;SDS011;67231;59.144;37.934;2023-12-22T05:12:56;7.80;;;2.95;;
77868;SDS011;67231;59.144;37.934;2023-12-22T05:15:23;8.65;;;3.45;;
77868;SDS011;67231;59.144;37.934;2023-12-22T05:17:49;7.45;;;3.58;;
77868;SDS011;67231;59.144;37.934;2023-12-22T05:20:16;6.70;;;3.20;;
77868;SDS011;67231;59.144;37.934;2023-12-22T05:22:42;6.35;;;3.17;;
77868;SDS011;67231;59.144;37.934;2023-12-22T05:25:09;7.65;;;2.80;;
77868;SDS011;67231;59.144;37.934;2023-12-22T05:27:38;7.80;;;3.15;;
77868;SDS011;67231;59.144;37.934;2023-12-22T05:30:05;4.70;;;2.55;;
77868;SDS011;67231;59.144;37.934;2023-12-22T05:32:32;6.60;;;2.70;;
77868;SDS011;67231;59.144;37.934;2023-12-22T05:34:59;4.80;;;2.65;;
77868;SDS011;67231;59.144;37.934;2023-12-22T05:37:25;6.10;;;3.10;;
77868;SDS011;67231;59.144;37.934;2023-12-22T05:39:52;6.20;;;3.15;;
77868;SDS011;67231;59.144;37.934;2023-12-22T05:42:18;7.72;;;2.97;;
77868;SDS011;67231;59.144;37.934;2023-12-22T05:44:45;6.35;;;2.97;;
77868;SDS011;67231;59.144;37.934;2023-12-22T05:47:16;4.88;;;2.35;;
77868;SDS011;67231;59.144;37.934;2023-12-22T05:49:43;6.75;;;3.13;;
77868;SDS011;67231;59.144;37.934;2023-12-22T05:52:10;6.82;;;3.13;;
77868;SDS011;67231;59.144;37.934;2023-12-22T05:54:38;8.23;;;3.75;;
77868;SDS011;67231;59.144;37.934;2023-12-22T05:57:04;6.13;;;3.03;;
77868;SDS011;67231;59.144;37.934;2023-12-22T05:59:32;6.88;;;3.10;;
77868;SDS011;67231;59.144;37.934;2023-12-22T06:02:00;5.65;;;2.67;;
77868;SDS011;67231;59.144;37.934;2023-12-22T06:04:27;7.88;;;3.38;;
77868;SDS011;67231;59.144;37.934;2023-12-22T06:06:53;7.70;;;3.30;;
77868;SDS011;67231;59.144;37.934;2023-12-22T06:09:20;9.40;;;4.00;;
77868;SDS011;67231;59.144;37.934;2023-12-22T06:11:48;6.05;;;2.78;;
77868;SDS011;67231;59.144;37.934;2023-12-22T06:14:15;6.32;;;3.13;;
77868;SDS011;67231;59.144;37.934;2023-12-22T06:16:44;6.25;;;3.22;;
77868;SDS011;67231;59.144;37.934;2023-12-22T06:19:11;7.07;;;3.25;;
77868;SDS011;67231;59.144;37.934;2023-12-22T06:21:39;6.13;;;3.22;;
77868;SDS011;67231;59.144;37.934;2023-12-22T06:24:05;6.43;;;3.13;;
77868;SDS011;67231;59.144;37.934;2023-12-22T06:26:33;7.78;;;3.55;;
77868;SDS011;67231;59.144;37.934;2023-12-22T06:29:00;8.50;;;3.72;;
77868;SDS011;67231;59.144;37.934;2023-12-22T06:31:26;8.20;;;3.47;;
77868;SDS011;67231;59.144;37.934;2023-12-22T06:33:53;6.20;;;3.38;;
77868;SDS011;67231;59.144;37.934;2023-12-22T06:36:23;7.30;;;3.35;;
77868;SDS011;67231;59.144;37.934;2023-12-22T06:38:51;7.93;;;3.45;;
77868;SDS011;67231;59.144;37.934;2023-12-22T06:41:22;6.32;;;3.30;;
77868;SDS011;67231;59.144;37.934;2023-12-22T06:43:50;6.05;;;3.00;;
77868;SDS011;67231;59.144;37.934;2023-12-22T06:46:17;6.63;;;2.67;;
77868;SDS011;67231;59.144;37.934;2023-12-22T06:48:45;6.72;;;3.30;;
77868;SDS011;67231;59.144;37.934;2023-12-22T06:51:18;4.43;;;2.53;;
77868;SDS011;67231;59.144;37.934;2023-12-22T06:53:49;16.85;;;3.70;;
77868;SDS011;67231;59.144;37.934;2023-12-22T06:56:17;5.85;;;2.90;;
77868;SDS011;67231;59.144;37.934;2023-12-22T06:58:44;8.85;;;4.13;;
77868;SDS011;67231;59.144;37.934;2023-12-22T07:01:17;6.20;;;3.60;;
77868;SDS011;67231;59.144;37.934;2023-12-22T07:03:46;6.93;;;2.85;;
77868;SDS011;67231;59.144;37.934;2023-12-22T07:06:16;7.80;;;3.65;;
77868;SDS011;67231;59.144;37.934;2023-12-22T07:08:44;8.10;;;3.55;;
77868;SDS011;67231;59.144;37.934;2023-12-22T07:11:22;9.57;;;4.15;;
77868;SDS011;67231;59.144;37.934;2023-12-22T07:13:49;7.90;;;3.83;;
77868;SDS011;67231;59.144;37.934;2023-12-22T07:16:16;15.57;;;4.40;;
77868;SDS011;67231;59.144;37.934;2023-12-22T07:18:42;7.75;;;3.88;;
77868;SDS011;67231;59.144;37.934;2023-12-22T07:21:09;7.72;;;3.55;;
77868;SDS011;67231;59.144;37.934;2023-12-22T07:23:44;6.70;;;3.88;;
77868;SDS011;67231;59.144;37.934;2023-12-22T07:26:10;7.95;;;4.07;;
77868;SDS011;67231;59.144;37.934;2023-12-22T07:28:39;8.93;;;4.10;;
77868;SDS011;67231;59.144;37.934;2023-12-22T07:31:06;9.43;;;3.78;;
77868;SDS011;67231;59.144;37.934;2023-12-22T07:33:32;11.15;;;4.20;;
77868;SDS011;67231;59.144;37.934;2023-12-22T07:35:59;7.82;;;4.15;;
77868;SDS011;67231;59.144;37.934;2023-12-22T07:38:25;7.45;;;3.78;;
77868;SDS011;67231;59.144;37.934;2023-12-22T07:40:51;9.82;;;4.72;;
77868;SDS011;67231;59.144;37.934;2023-12-22T07:43:18;10.38;;;4.55;;
77868;SDS011;67231;59.144;37.934;2023-12-22T07:45:44;8.95;;;4.07;;
77868;SDS011;67231;59.144;37.934;2023-12-22T07:48:10;9.02;;;4.80;;
77868;SDS011;67231;59.144;37.934;2023-12-22T07:50:37;9.45;;;4.28;;
77868;SDS011;67231;59.144;37.934;2023-12-22T07:53:03;8.90;;;4.30;;
77868;SDS011;67231;59.144;37.934;2023-12-22T07:55:30;9.25;;;4.88;;
77868;SDS011;67231;59.144;37.934;2023-12-22T07:57:56;8.85;;;4.72;;
77868;SDS011;67231;59.144;37.934;2023-12-22T08:00:23;10.48;;;5.45;;
77868;SDS011;67231;59.144;37.934;2023-12-22T08:02:49;11.77;;;4.88;;
77868;SDS011;67231;59.144;37.934;2023-12-22T08:05:15;8.45;;;4.95;;
77868;SDS011;67231;59.144;37.934;2023-12-22T08:07:42;9.25;;;4.45;;
77868;SDS011;67231;59.144;37.934;2023-12-22T08:10:08;9.25;;;5.00;;
77868;SDS011;67231;59.144;37.934;2023-12-22T08:12:35;8.85;;;4.38;;
77868;SDS011;67231;59.144;37.934;2023-12-22T08:15:01;10.18;;;4.93;;
77868;SDS011;67231;59.144;37.934;2023-12-22T08:19:57;7.47;;;4.35;;
77868;SDS011;67231;59.144;37.934;2023-12-22T08:22:23;9.55;;;5.20;;
77868;SDS011;67231;59.144;37.934;2023-12-22T08:24:50;10.23;;;5.00;;
77868;SDS011;67231;59.144;37.934;2023-12-22T08:27:16;14.77;;;4.72;;
77868;SDS011;67231;59.144;37.934;2023-12-22T08:29:43;15.80;;;5.95;;
77868;SDS011;67231;59.144;37.934;2023-12-22T08:32:10;10.43;;;4.88;;
77868;SDS011;67231;59.144;37.934;2023-12-22T08:34:37;14.90;;;4.00;;
77868;SDS011;67231;59.144;37.934;2023-12-22T08:37:03;7.15;;;4.03;;
77868;SDS011;67231;59.144;37.934;2023-12-22T08:39:29;6.93;;;3.25;;
77868;SDS011;67231;59.144;37.934;2023-12-22T08:41:57;9.57;;;4.82;;
77868;SDS011;67231;59.144;37.934;2023-12-22T08:44:23;9.38;;;3.90;;
77868;SDS011;67231;59.144;37.934;2023-12-22T08:46:50;8.70;;;4.35;;
77868;SDS011;67231;59.144;37.934;2023-12-22T08:49:16;7.50;;;3.85;;
77868;SDS011;67231;59.144;37.934;2023-12-22T08:51:46;12.60;;;4.97;;
77868;SDS011;67231;59.144;37.934;2023-12-22T08:54:12;7.80;;;3.83;;
77868;SDS011;67231;59.144;37.934;2023-12-22T08:56:38;11.57;;;5.65;;
77868;SDS011;67231;59.144;37.934;2023-12-22T08:59:05;7.50;;;4.35;;
77868;SDS011;67231;59.144;37.934;2023-12-22T09:01:37;11.30;;;4.70;;
77868;SDS011;67231;59.144;37.934;2023-12-22T09:04:04;10.00;;;4.78;;
77868;SDS011;67231;59.144;37.934;2023-12-22T09:06:33;12.85;;;6.30;;
77868;SDS011;67231;59.144;37.934;2023-12-22T09:09:00;13.80;;;6.55;;
77868;SDS011;67231;59.144;37.934;2023-12-22T09:11:27;8.02;;;4.38;;
77868;SDS011;67231;59.144;37.934;2023-12-22T09:13:53;6.97;;;4.15;;
77868;SDS011;67231;59.144;37.934;2023-12-22T09:16:23;15.95;;;6.65;;
77868;SDS011;67231;59.144;37.934;2023-12-22T09:18:51;11.88;;;5.32;;
77868;SDS011;67231;59.144;37.934;2023-12-22T09:21:18;18.38;;;5.90;;
77868;SDS011;67231;59.144;37.934;2023-12-22T09:23:48;13.65;;;6.68;;
77868;SDS011;67231;59.144;37.934;2023-12-22T09:26:15;8.15;;;4.10;;
77868;SDS011;67231;59.144;37.934;2023-12-22T09:28:42;12.05;;;4.45;;
77868;SDS011;67231;59.144;37.934;2023-12-22T09:31:08;10.43;;;4.20;;
77868;SDS011;67231;59.144;37.934;2023-12-22T09:33:35;12.73;;;5.00;;
77868;SDS011;67231;59.144;37.934;2023-12-22T09:36:02;9.13;;;4.60;;
77868;SDS011;67231;59.144;37.934;2023-12-22T09:38:29;14.85;;;5.53;;
77868;SDS011;67231;59.144;37.934;2023-12-22T09:40:55;12.60;;;4.90;;
77868;SDS011;67231;59.144;37.934;2023-12-22T09:43:22;10.43;;;4.25;;
77868;SDS011;67231;59.144;37.934;2023-12-22T09:45:50;9.50;;;4.65;;
77868;SDS011;67231;59.144;37.934;2023-12-22T09:48:18;11.43;;;5.00;;
77868;SDS011;67231;59.144;37.934;2023-12-22T09:50:54;7.53;;;2.97;;
77868;SDS011;67231;59.144;37.934;2023-12-22T09:53:21;7.78;;;4.03;;
77868;SDS011;67231;59.144;37.934;2023-12-22T09:55:49;17.77;;;7.35;;
77868;SDS011;67231;59.144;37.934;2023-12-22T09:58:16;11.10;;;4.80;;
77868;SDS011;67231;59.144;37.934;2023-12-22T10:00:43;7.55;;;3.58;;
77868;SDS011;67231;59.144;37.934;2023-12-22T10:03:11;9.75;;;3.70;;
77868;SDS011;67231;59.144;37.934;2023-12-22T10:05:41;7.32;;;4.07;;
77868;SDS011;67231;59.144;37.934;2023-12-22T10:08:09;5.53;;;3.55;;
77868;SDS011;67231;59.144;37.934;2023-12-22T10:10:39;8.05;;;3.55;;
77868;SDS011;67231;59.144;37.934;2023-12-22T10:13:11;7.82;;;4.45;;
77868;SDS011;67231;59.144;37.934;2023-12-22T10:15:40;7.40;;;3.90;;
77868;SDS011;67231;59.144;37.934;2023-12-22T10:18:09;7.25;;;3.03;;
77868;SDS011;67231;59.144;37.934;2023-12-22T10:20:36;7.75;;;3.75;;
77868;SDS011;67231;59.144;37.934;2023-12-22T10:23:02;7.68;;;4.10;;
77868;SDS011;67231;59.144;37.934;2023-12-22T10:25:29;7.63;;;4.07;;
77868;SDS011;67231;59.144;37.934;2023-12-22T10:27:56;6.60;;;3.97;;
77868;SDS011;67231;59.144;37.934;2023-12-22T10:30:23;6.80;;;3.63;;
77868;SDS011;67231;59.144;37.934;2023-12-22T10:32:52;9.40;;;4.00;;
77868;SDS011;67231;59.144;37.934;2023-12-22T10:35:22;7.57;;;4.18;;
77868;SDS011;67231;59.144;37.934;2023-12-22T10:37:49;7.85;;;4.18;;
77868;SDS011;67231;59.144;37.934;2023-12-22T10:40:20;9.45;;;4.07;;
77868;SDS011;67231;59.144;37.934;2023-12-22T10:42:46;7.32;;;3.85;;
77868;SDS011;67231;59.144;37.934;2023-12-22T10:45:15;8.30;;;4.03;;
77868;SDS011;67231;59.144;37.934;2023-12-22T10:47:43;9.02;;;4.38;;
77868;SDS011;67231;59.144;37.934;2023-12-22T10:50:11;8.93;;;4.50;;
77868;SDS011;67231;59.144;37.934;2023-12-22T10:52:41;7.43;;;4.00;;
77868;SDS011;67231;59.144;37.934;2023-12-22T10:55:15;6.95;;;3.65;;
77868;SDS011;67231;59.144;37.934;2023-12-22T10:57:42;9.15;;;4.35;;
77868;SDS011;67231;59.144;37.934;2023-12-22T11:00:16;5.85;;;3.17;;
77868;SDS011;67231;59.144;37.934;2023-12-22T11:02:47;7.93;;;3.75;;
77868;SDS011;67231;59.144;37.934;2023-12-22T11:05:15;9.57;;;4.43;;
77868;SDS011;67231;59.144;37.934;2023-12-22T11:07:46;6.93;;;3.40;;
77868;SDS011;67231;59.144;37.934;2023-12-22T11:10:16;10.95;;;5.28;;
77868;SDS011;67231;59.144;37.934;2023-12-22T11:12:46;7.30;;;4.40;;
77868;SDS011;67231;59.144;37.934;2023-12-22T11:15:14;10.43;;;4.80;;
77868;SDS011;67231;59.144;37.934;2023-12-22T11:17:42;7.53;;;3.88;;
77868;SDS011;67231;59.144;37.934;2023-12-22T11:20:12;9.43;;;5.03;;
77868;SDS011;67231;59.144;37.934;2023-12-22T11:22:39;7.80;;;3.75;;
77868;SDS011;67231;59.144;37.934;2023-12-22T11:25:08;8.02;;;4.10;;
77868;SDS011;67231;59.144;37.934;2023-12-22T11:27:36;6.85;;;3.53;;
77868;SDS011;67231;59.144;37.934;2023-12-22T11:30:07;10.15;;;4.10;;
77868;SDS011;67231;59.144;37.934;2023-12-22T11:32:35;9.13;;;4.55;;
77868;SDS011;67231;59.144;37.934;2023-12-22T11:35:02;8.45;;;4.25;;
77868;SDS011;67231;59.144;37.934;2023-12-22T11:37:31;10.35;;;4.45;;
77868;SDS011;67231;59.144;37.934;2023-12-22T11:39:59;8.55;;;4.07;;
77868;SDS011;67231;59.144;37.934;2023-12-22T11:42:28;5.25;;;3.08;;
77868;SDS011;67231;59.144;37.934;2023-12-22T11:44:58;8.82;;;3.72;;
77868;SDS011;67231;59.144;37.934;2023-12-22T11:47:25;9.70;;;4.60;;
77868;SDS011;67231;59.144;37.934;2023-12-22T11:49:55;9.23;;;4.38;;
77868;SDS011;67231;59.144;37.934;2023-12-22T11:52:26;10.13;;;4.28;;
77868;SDS011;67231;59.144;37.934;2023-12-22T11:54:56;9.25;;;3.80;;
77868;SDS011;67231;59.144;37.934;2023-12-22T12:00:06;8.48;;;4.55;;
77868;SDS011;67231;59.144;37.934;2023-12-22T12:02:40;10.40;;;5.03;;
77868;SDS011;67231;59.144;37.934;2023-12-22T12:05:09;8.00;;;4.22;;
77868;SDS011;67231;59.144;37.934;2023-12-22T12:07:43;8.57;;;4.03;;
77868;SDS011;67231;59.144;37.934;2023-12-22T12:13:09;9.73;;;4.53;;
77868;SDS011;67231;59.144;37.934;2023-12-22T12:15:38;8.57;;;3.95;;
77868;SDS011;67231;59.144;37.934;2023-12-22T12:18:05;10.38;;;4.88;;
77868;SDS011;67231;59.144;37.934;2023-12-22T12:20:35;10.32;;;4.60;;
77868;SDS011;67231;59.144;37.934;2023-12-22T12:23:02;9.23;;;4.20;;
77868;SDS011;67231;59.144;37.934;2023-12-22T12:25:30;7.93;;;4.35;;
77868;SDS011;67231;59.144;37.934;2023-12-22T12:28:04;9.65;;;4.00;;
77868;SDS011;67231;59.144;37.934;2023-12-22T12:30:35;7.03;;;3.40;;
77868;SDS011;67231;59.144;37.934;2023-12-22T12:33:10;8.55;;;4.35;;
77868;SDS011;67231;59.144;37.934;2023-12-22T12:35:38;9.10;;;4.28;;
77868;SDS011;67231;59.144;37.934;2023-12-22T12:38:09;8.15;;;3.90;;
77868;SDS011;67231;59.144;37.934;2023-12-22T12:40:39;9.23;;;4.22;;
77868;SDS011;67231;59.144;37.934;2023-12-22T12:43:06;7.30;;;3.50;;
77868;SDS011;67231;59.144;37.934;2023-12-22T12:45:33;9.07;;;4.28;;
77868;SDS011;67231;59.144;37.934;2023-12-22T12:48:03;11.55;;;5.18;;
77868;SDS011;67231;59.144;37.934;2023-12-22T12:50:30;10.25;;;5.32;;
77868;SDS011;67231;59.144;37.934;2023-12-22T12:52:59;8.25;;;4.63;;
77868;SDS011;67231;59.144;37.934;2023-12-22T12:55:26;10.13;;;4.70;;
77868;SDS011;67231;59.144;37.934;2023-12-22T12:57:53;10.18;;;4.78;;
77868;SDS011;67231;59.144;37.934;2023-12-22T13:00:25;9.25;;;4.53;;
77868;SDS011;67231;59.144;37.934;2023-12-22T13:02:56;11.52;;;4.57;;
77868;SDS011;67231;59.144;37.934;2023-12-22T13:05:28;7.63;;;4.10;;
77868;SDS011;67231;59.144;37.934;2023-12-22T13:08:11;12.38;;;5.15;;
77868;SDS011;67231;59.144;37.934;2023-12-22T13:10:40;7.50;;;3.83;;
77868;SDS011;67231;59.144;37.934;2023-12-22T13:13:07;6.78;;;3.22;;
77868;SDS011;67231;59.144;37.934;2023-12-22T13:15:34;8.13;;;4.00;;
77868;SDS011;67231;59.144;37.934;2023-12-22T13:18:00;11.63;;;5.05;;
77868;SDS011;67231;59.144;37.934;2023-12-22T13:20:27;7.80;;;3.63;;
77868;SDS011;67231;59.144;37.934;2023-12-22T13:22:54;9.77;;;4.90;;
77868;SDS011;67231;59.144;37.934;2023-12-22T13:25:21;9.43;;;4.25;;
77868;SDS011;67231;59.144;37.934;2023-12-22T13:27:50;12.32;;;4.90;;
77868;SDS011;67231;59.144;37.934;2023-12-22T13:33:02;14.70;;;6.40;;
77868;SDS011;67231;59.144;37.934;2023-12-22T13:35:28;9.40;;;3.45;;
77868;SDS011;67231;59.144;37.934;2023-12-22T13:37:55;11.35;;;4.93;;
77868;SDS011;67231;59.144;37.934;2023-12-22T13:40:22;7.47;;;3.22;;
77868;SDS011;67231;59.144;37.934;2023-12-22T13:42:58;12.85;;;5.55;;
77868;SDS011;67231;59.144;37.934;2023-12-22T13:45:27;9.75;;;4.18;;
77868;SDS011;67231;59.144;37.934;2023-12-22T13:47:55;10.00;;;4.90;;
77868;SDS011;67231;59.144;37.934;2023-12-22T13:50:21;10.90;;;5.90;;
77868;SDS011;67231;59.144;37.934;2023-12-22T13:52:49;6.85;;;3.63;;
77868;SDS011;67231;59.144;37.934;2023-12-22T13:55:19;9.73;;;4.28;;
77868;SDS011;67231;59.144;37.934;2023-12-22T14:02:50;9.38;;;4.70;;
77868;SDS011;67231;59.144;37.934;2023-12-22T14:05:17;11.75;;;5.22;;
77868;SDS011;67231;59.144;37.934;2023-12-22T14:07:44;10.45;;;4.75;;
77868;SDS011;67231;59.144;37.934;2023-12-22T14:10:11;8.80;;;4.72;;
77868;SDS011;67231;59.144;37.934;2023-12-22T14:12:38;8.13;;;4.10;;
77868;SDS011;67231;59.144;37.934;2023-12-22T14:15:06;12.23;;;5.03;;
77868;SDS011;67231;59.144;37.934;2023-12-22T14:17:39;10.13;;;4.75;;
77868;SDS011;67231;59.144;37.934;2023-12-22T14:20:08;10.40;;;5.45;;
77868;SDS011;67231;59.144;37.934;2023-12-22T14:22:36;9.10;;;4.13;;
77868;SDS011;67231;59.144;37.934;2023-12-22T14:25:04;10.70;;;4.97;;
77868;SDS011;67231;59.144;37.934;2023-12-22T14:27:32;9.35;;;4.78;;
77868;SDS011;67231;59.144;37.934;2023-12-22T14:29:58;12.35;;;5.45;;
77868;SDS011;67231;59.144;37.934;2023-12-22T14:32:25;11.65;;;5.82;;
77868;SDS011;67231;59.144;37.934;2023-12-22T14:34:52;10.10;;;4.93;;
77868;SDS011;67231;59.144;37.934;2023-12-22T14:37:18;12.20;;;5.50;;
77868;SDS011;67231;59.144;37.934;2023-12-22T14:39:46;9.88;;;4.00;;
77868;SDS011;67231;59.144;37.934;2023-12-22T14:42:13;9.73;;;4.80;;
77868;SDS011;67231;59.144;37.934;2023-12-22T14:44:40;11.73;;;5.57;;
77868;SDS011;67231;59.144;37.934;2023-12-22T14:47:07;9.18;;;4.78;;
77868;SDS011;67231;59.144;37.934;2023-12-22T14:49:33;13.38;;;5.63;;
77868;SDS011;67231;59.144;37.934;2023-12-22T14:52:00;10.65;;;5.18;;